Time;durP1;ratioP1;P1;durP2;ratioP2;P2;SDS_P1;SDS_P2;PMS_P1;PMS_P2;Temp;Humidity;BMP_temperature;BMP_pressure;BME280_temperature;BME280_humidity;BME280_pressure;Samples;Min_cycle;Max_cycle;Signal;HPM_P1;HPM_P2
2022/10/25 00:01:22;;;;;;;7.28;3.53;;;12.90;99.90;;;;;;5030295;28;20049;-73
2022/10/25 00:03:48;;;;;;;10.65;3.50;;;12.90;99.90;;;;;;5029951;28;20081;-74
2022/10/25 00:06:14;;;;;;;8.40;3.28;;;12.90;99.90;;;;;;5050016;28;20080;-73
2022/10/25 00:08:40;;;;;;;12.82;3.80;;;12.90;99.90;;;;;;5050904;28;20041;-74
2022/10/25 00:11:09;;;;;;;13.05;3.67;;;12.90;99.90;;;;;;5049980;28;20597;-73
2022/10/25 00:13:35;;;;;;;9.73;3.40;;;12.90;99.90;;;;;;5033155;28;20060;-74
2022/10/25 00:16:00;;;;;;;8.68;4.38;;;12.80;99.90;;;;;;5049570;28;20045;-74
2022/10/25 00:18:26;;;;;;;8.93;4.53;;;12.90;99.90;;;;;;5049769;28;20040;-74
2022/10/25 00:20:52;;;;;;;12.93;4.47;;;12.90;99.90;;;;;;5048842;28;20371;-74
2022/10/25 00:23:18;;;;;;;7.38;3.90;;;12.80;99.90;;;;;;5051161;28;20123;-74
2022/10/25 00:25:44;;;;;;;9.90;4.88;;;12.90;99.90;;;;;;5048738;28;20048;-74
2022/10/25 00:28:10;;;;;;;8.98;4.32;;;12.90;99.90;;;;;;5051133;28;20041;-74
2022/10/25 00:30:35;;;;;;;9.05;4.50;;;12.90;99.90;;;;;;5049859;28;20033;-73
2022/10/25 00:33:01;;;;;;;11.32;4.53;;;12.90;99.90;;;;;;5050468;28;20052;-74
2022/10/25 00:35:30;;;;;;;9.40;4.85;;;12.90;99.90;;;;;;5050380;28;20095;-73
2022/10/25 00:37:55;;;;;;;9.63;4.03;;;12.90;99.90;;;;;;5050530;28;20041;-73
2022/10/25 00:40:21;;;;;;;10.20;4.97;;;12.90;99.90;;;;;;5049738;28;20274;-74
2022/10/25 00:42:47;;;;;;;8.90;4.40;;;12.90;99.90;;;;;;5050398;28;20143;-73
2022/10/25 00:45:23;;;;;;;14.10;4.90;;;12.90;99.90;;;;;;5051776;28;20278;-73
2022/10/25 00:48:05;;;;;;;10.77;4.63;;;12.90;99.90;;;;;;5032235;28;20091;-74
2022/10/25 00:50:33;;;;;;;13.20;4.97;;;12.90;99.90;;;;;;5049360;28;20502;-73
2022/10/25 00:53:11;;;;;;;8.40;4.53;;;12.90;99.90;;;;;;5048773;28;20096;-74
2022/10/25 00:55:41;;;;;;;10.75;5.07;;;12.90;99.90;;;;;;5048827;28;20124;-73
2022/10/25 00:58:20;;;;;;;13.68;5.03;;;12.90;99.90;;;;;;5050175;28;20159;-73
2022/10/25 01:00:49;;;;;;;12.13;4.93;;;12.90;99.90;;;;;;5050418;28;20545;-74
2022/10/25 01:03:17;;;;;;;12.38;5.07;;;13.00;99.90;;;;;;5050192;28;20048;-73
2022/10/25 01:05:44;;;;;;;12.00;4.72;;;12.90;99.90;;;;;;5031705;28;20091;-73
2022/10/25 01:08:10;;;;;;;;;;;13.00;99.90;;;;;;5048969;28;20044;-73
2022/10/25 01:10:37;;;;;;;12.60;5.25;;;13.00;99.90;;;;;;5048902;28;19917;-74
2022/10/25 01:13:03;;;;;;;12.15;5.35;;;12.90;99.90;;;;;;5049616;28;20115;-74
2022/10/25 01:15:40;;;;;;;15.43;5.05;;;13.00;99.90;;;;;;5050347;28;20037;-73
2022/10/25 01:18:18;;;;;;;12.45;5.07;;;13.00;99.90;;;;;;5049471;28;20053;-74
2022/10/25 01:20:52;;;;;;;12.80;5.05;;;13.00;99.90;;;;;;5049891;28;20037;-73
2022/10/25 01:23:37;;;;;;;15.15;4.85;;;13.00;99.90;;;;;;5047921;28;20036;-74
2022/10/25 01:26:17;;;;;;;11.98;5.35;;;13.00;99.90;;;;;;5049773;28;20270;-74
2022/10/25 01:28:52;;;;;;;7.53;3.78;;;13.00;99.90;;;;;;5049353;28;20148;-73
2022/10/25 01:31:36;;;;;;;11.15;4.95;;;13.00;99.90;;;;;;5050305;28;20120;-74
2022/10/25 01:34:09;;;;;;;9.48;4.60;;;13.00;99.90;;;;;;5046763;28;20080;-77
2022/10/25 01:37:03;;;;;;;11.00;4.75;;;13.00;99.90;;;;;;5048240;28;20064;-74
2022/10/25 01:39:47;;;;;;;12.82;3.90;;;13.00;99.90;;;;;;5047009;28;20087;-73
2022/10/25 01:42:22;;;;;;;10.25;4.80;;;13.00;99.90;;;;;;5047846;28;20404;-73
2022/10/25 01:45:14;;;;;;;8.98;4.18;;;13.10;99.90;;;;;;5048194;28;20048;-74
2022/10/25 01:48:01;;;;;;;8.25;3.97;;;13.00;99.90;;;;;;5049146;28;20505;-73
2022/10/25 01:50:28;;;;;;;;;;;13.10;99.90;;;;;;5049149;28;20041;-73
2022/10/25 01:52:54;;;;;;;11.98;4.50;;;13.10;99.90;;;;;;5048266;28;20321;-73
2022/10/25 01:55:26;;;;;;;6.73;3.87;;;13.10;99.90;;;;;;5048188;28;20049;-72
2022/10/25 01:58:12;;;;;;;10.98;3.65;;;13.10;99.90;;;;;;5048360;28;20667;-74
2022/10/25 02:00:53;;;;;;;8.32;3.55;;;13.10;99.90;;;;;;5049789;28;20041;-74
2022/10/25 02:03:33;;;;;;;7.00;3.28;;;13.20;99.90;;;;;;5049359;28;20044;-74
2022/10/25 02:06:07;;;;;;;7.55;3.80;;;13.10;99.90;;;;;;5047759;28;20049;-74
2022/10/25 02:08:47;;;;;;;6.10;3.38;;;13.10;99.90;;;;;;5047823;28;20044;-74
2022/10/25 02:11:18;;;;;;;7.90;3.63;;;13.10;99.90;;;;;;5047785;28;20060;-74
2022/10/25 02:14:13;;;;;;;7.18;3.17;;;13.20;99.90;;;;;;5048320;28;20580;-74
2022/10/25 02:16:42;;;;;;;7.28;2.97;;;13.10;99.90;;;;;;5048081;28;20187;-72
2022/10/25 02:19:12;;;;;;;10.63;3.78;;;13.10;99.90;;;;;;5048236;28;20045;-78
2022/10/25 02:21:39;;;;;;;9.73;3.38;;;13.10;99.90;;;;;;5046712;28;20140;-74
2022/10/25 02:24:17;;;;;;;8.00;2.92;;;13.10;99.90;;;;;;5047201;28;20148;-73
2022/10/25 02:26:48;;;;;;;7.97;3.35;;;13.10;99.90;;;;;;5031110;28;20122;-73
2022/10/25 02:29:15;;;;;;;4.78;3.08;;;13.20;99.90;;;;;;5046896;28;20103;-73
2022/10/25 02:31:41;;;;;;;9.90;3.00;;;13.20;99.90;;;;;;5048793;28;20093;-73
2022/10/25 02:34:07;;;;;;;7.30;3.28;;;13.20;99.90;;;;;;5047907;28;20163;-73
2022/10/25 02:36:33;;;;;;;8.75;2.90;;;13.20;99.90;;;;;;5048605;28;20460;-74
2022/10/25 02:38:59;;;;;;;9.23;3.05;;;13.20;99.90;;;;;;5047500;28;20434;-71
2022/10/25 02:41:25;;;;;;;;;;;13.20;99.90;;;;;;5048926;28;20080;-71
2022/10/25 02:43:50;;;;;;;8.43;2.78;;;13.20;99.90;;;;;;5046402;28;19959;-72
2022/10/25 02:46:21;;;;;;;5.78;2.85;;;13.20;99.90;;;;;;5048422;28;20303;-72
2022/10/25 02:48:49;;;;;;;8.25;3.00;;;13.20;99.90;;;;;;5047198;28;20406;-72
2022/10/25 02:51:15;;;;;;;6.78;2.35;;;13.20;99.90;;;;;;5093566;22;20054;-76
2022/10/25 02:53:41;;;;;;;6.70;3.10;;;13.40;99.90;;;;;;4988349;28;20037;-76
2022/10/25 02:56:13;;;;;;;5.20;2.35;;;13.30;99.90;;;;;;5000380;28;20137;-75
2022/10/25 02:58:41;;;;;;;7.50;2.88;;;13.30;99.90;;;;;;4999091;28;20137;-76
2022/10/25 03:01:07;;;;;;;8.48;2.45;;;13.30;99.90;;;;;;5001037;28;20135;-75
2022/10/25 03:03:33;;;;;;;7.95;2.42;;;13.30;99.90;;;;;;5005667;28;20072;-76
2022/10/25 03:05:59;;;;;;;;;;;13.30;99.90;;;;;;5004985;28;20527;-76
2022/10/25 03:08:25;;;;;;;7.18;2.88;;;13.40;99.90;;;;;;5005890;28;19924;-75
2022/10/25 03:10:51;;;;;;;;;;;13.30;99.90;;;;;;5003392;28;20038;-75
2022/10/25 03:13:17;;;;;;;6.97;2.45;;;13.40;99.90;;;;;;4996465;28;19917;-75
2022/10/25 03:15:44;;;;;;;6.15;3.20;;;13.40;99.90;;;;;;4998338;28;20064;-75
2022/10/25 03:18:11;;;;;;;10.93;3.28;;;13.40;99.90;;;;;;5006399;28;20049;-76
2022/10/25 03:20:37;;;;;;;7.05;3.08;;;13.40;99.90;;;;;;4997563;28;20108;-75
2022/10/25 03:23:03;;;;;;;6.35;2.60;;;13.40;99.90;;;;;;4985670;28;20042;-75
2022/10/25 03:25:29;;;;;;;16.98;3.95;;;13.40;99.90;;;;;;4996860;28;20057;-76
2022/10/25 03:27:54;;;;;;;5.95;2.80;;;13.40;99.90;;;;;;5005108;28;20042;-75
2022/10/25 03:30:20;;;;;;;12.00;2.80;;;13.30;99.90;;;;;;5007325;28;20053;-75
2022/10/25 03:32:46;;;;;;;8.75;3.03;;;13.30;99.90;;;;;;4995854;28;20067;-76
2022/10/25 03:35:12;;;;;;;9.90;2.88;;;13.40;99.90;;;;;;5008888;28;20215;-76
2022/10/25 03:37:38;;;;;;;5.70;2.28;;;13.30;99.90;;;;;;5007348;28;20045;-76
2022/10/25 03:40:04;;;;;;;5.35;2.42;;;13.30;99.90;;;;;;5013219;28;20411;-76
2022/10/25 03:42:30;;;;;;;8.52;2.33;;;13.30;99.90;;;;;;4994450;28;20060;-76
2022/10/25 03:44:55;;;;;;;8.32;2.70;;;13.30;99.90;;;;;;5013726;28;20041;-76
2022/10/25 03:47:21;;;;;;;8.83;2.80;;;13.20;99.90;;;;;;5006250;28;20132;-76
2022/10/25 03:49:47;;;;;;;5.82;2.22;;;13.30;99.90;;;;;;5002707;28;20182;-75
2022/10/25 03:52:12;;;;;;;7.20;2.07;;;13.30;99.90;;;;;;4997878;28;20127;-75
2022/10/25 03:54:38;;;;;;;13.40;3.07;;;13.30;99.90;;;;;;5006453;28;20295;-76
2022/10/25 03:57:04;;;;;;;8.43;2.43;;;13.30;99.90;;;;;;5003446;28;20053;-75
2022/10/25 03:59:30;;;;;;;11.60;3.33;;;13.30;99.90;;;;;;4999811;28;20042;-76
2022/10/25 04:01:55;;;;;;;13.30;2.72;;;13.30;99.90;;;;;;5000157;28;20042;-76
2022/10/25 04:04:21;;;;;;;11.40;2.65;;;13.30;99.90;;;;;;5005398;28;20077;-75
2022/10/25 04:06:47;;;;;;;6.70;2.05;;;13.20;99.90;;;;;;5002671;28;20046;-76
2022/10/25 04:09:13;;;;;;;6.00;2.50;;;13.20;99.90;;;;;;4996927;28;20125;-76
2022/10/25 04:11:39;;;;;;;7.45;2.05;;;13.20;99.90;;;;;;4998469;28;20570;-76
2022/10/25 04:14:04;;;;;;;10.73;2.65;;;13.20;99.90;;;;;;5003953;28;20037;-76
2022/10/25 04:16:30;;;;;;;9.07;2.40;;;13.20;99.90;;;;;;5003794;28;20069;-76
2022/10/25 04:18:57;;;;;;;7.43;2.75;;;13.10;99.90;;;;;;4998882;28;20050;-75
2022/10/25 04:21:24;;;;;;;11.90;1.83;;;13.10;99.90;;;;;;5007466;28;20140;-76
2022/10/25 04:23:51;;;;;;;12.80;2.63;;;13.10;99.90;;;;;;5003929;28;20042;-75
2022/10/25 04:26:18;;;;;;;15.60;2.28;;;13.10;99.90;;;;;;5006128;28;20058;-76
2022/10/25 04:28:48;;;;;;;13.00;2.72;;;13.10;99.90;;;;;;5002857;28;20076;-75
2022/10/25 04:31:14;;;;;;;10.32;2.20;;;13.10;99.90;;;;;;5011021;28;20125;-75
2022/10/25 04:33:40;;;;;;;9.63;2.30;;;13.10;99.90;;;;;;5008106;28;20144;-76
2022/10/25 04:36:06;;;;;;;11.27;2.80;;;13.10;99.90;;;;;;5001306;28;20050;-76
2022/10/25 04:38:31;;;;;;;8.85;2.08;;;13.10;99.90;;;;;;5003501;28;20053;-76
2022/10/25 04:40:58;;;;;;;8.03;2.13;;;13.10;99.90;;;;;;5013750;28;20515;-75
2022/10/25 04:43:25;;;;;;;10.10;1.98;;;13.10;99.90;;;;;;5001184;28;20042;-75
2022/10/25 04:45:52;;;;;;;9.10;1.60;;;13.10;99.90;;;;;;5005721;28;20128;-75
2022/10/25 04:48:18;;;;;;;10.45;2.63;;;13.10;99.90;;;;;;5003969;28;20126;-75
2022/10/25 04:50:44;;;;;;;7.60;1.83;;;13.00;99.90;;;;;;5004727;28;20132;-75
2022/10/25 04:53:10;;;;;;;7.07;2.35;;;13.00;99.90;;;;;;5005023;28;20308;-75
2022/10/25 04:55:36;;;;;;;7.47;2.38;;;13.00;99.90;;;;;;4993303;28;20140;-75
2022/10/25 04:58:02;;;;;;;6.50;2.00;;;13.00;99.90;;;;;;5004941;28;20182;-75
2022/10/25 05:00:28;;;;;;;9.75;2.00;;;13.00;99.90;;;;;;5000206;28;20050;-76
2022/10/25 05:02:54;;;;;;;9.57;2.00;;;13.00;99.90;;;;;;5006288;28;20077;-75
2022/10/25 05:05:22;;;;;;;8.10;2.65;;;13.00;99.90;;;;;;5002818;28;20170;-76
2022/10/25 05:07:48;;;;;;;8.38;2.30;;;13.00;99.90;;;;;;5004625;28;20061;-75
2022/10/25 05:10:13;;;;;;;13.43;2.75;;;12.90;99.90;;;;;;5005504;28;20121;-76
2022/10/25 05:12:39;;;;;;;12.55;2.40;;;12.90;99.90;;;;;;4988945;28;20051;-75
2022/10/25 05:15:06;;;;;;;7.37;2.20;;;12.90;99.90;;;;;;5011705;28;20525;-76
2022/10/25 05:17:32;;;;;;;8.25;2.25;;;12.90;99.90;;;;;;4979691;28;20319;-76
2022/10/25 05:19:57;;;;;;;15.90;3.50;;;12.90;99.90;;;;;;4995255;28;20075;-76
2022/10/25 05:22:23;;;;;;;8.70;2.60;;;13.00;99.90;;;;;;5000299;28;20042;-75
2022/10/25 05:24:50;;;;;;;7.68;2.63;;;12.90;99.90;;;;;;5001622;28;20080;-77
2022/10/25 05:27:16;;;;;;;9.13;3.47;;;12.90;99.90;;;;;;5006949;28;20444;-77
2022/10/25 05:29:42;;;;;;;8.20;2.60;;;12.90;99.90;;;;;;4988436;28;20030;-77
2022/10/25 05:32:08;;;;;;;9.10;3.03;;;12.90;99.90;;;;;;5011573;28;20095;-79
2022/10/25 05:34:33;;;;;;;9.20;3.20;;;12.90;99.90;;;;;;5006218;28;20307;-76
2022/10/25 05:36:59;;;;;;;10.68;3.88;;;12.90;99.90;;;;;;5011119;28;20069;-79
2022/10/25 05:39:25;;;;;;;10.93;2.90;;;12.90;99.90;;;;;;4996587;28;20061;-82
2022/10/25 05:41:51;;;;;;;4.45;2.15;;;12.90;99.90;;;;;;5000229;28;20044;-79
2022/10/25 05:44:17;;;;;;;12.82;3.50;;;12.90;99.90;;;;;;5006216;28;20038;-81
2022/10/25 05:46:43;;;;;;;7.65;2.70;;;12.90;99.90;;;;;;5000917;28;20046;-76
2022/10/25 05:49:10;;;;;;;8.38;2.75;;;12.90;99.90;;;;;;4986928;28;20118;-76
2022/10/25 05:51:36;;;;;;;;;;;12.90;99.90;;;;;;4998990;28;20045;-76
2022/10/25 05:54:10;;;;;;;8.60;2.28;;;12.80;99.90;;;;;;4990924;28;21137;-76
2022/10/25 05:56:37;;;;;;;10.32;2.90;;;12.80;99.90;;;;;;4998284;28;20308;-76
2022/10/25 05:59:08;;;;;;;11.95;2.75;;;12.90;99.90;;;;;;4999594;28;20037;-76
2022/10/25 06:01:35;;;;;;;11.30;2.83;;;12.90;99.90;;;;;;5003769;28;20092;-75
2022/10/25 06:04:01;;;;;;;10.07;3.20;;;12.90;99.90;;;;;;5012203;28;20498;-76
2022/10/25 06:06:27;;;;;;;8.00;2.63;;;12.90;99.90;;;;;;4988155;28;20056;-75
2022/10/25 06:08:57;;;;;;;8.27;2.70;;;12.90;99.90;;;;;;5006053;28;20129;-75
2022/10/25 06:11:24;;;;;;;7.78;2.35;;;12.90;99.90;;;;;;5017829;28;20358;-76
2022/10/25 06:13:49;;;;;;;5.88;2.72;;;12.90;99.90;;;;;;5010455;28;20052;-76
2022/10/25 06:16:18;;;;;;;7.13;2.20;;;12.90;99.90;;;;;;5006164;28;20054;-76
2022/10/25 06:18:44;;;;;;;6.82;2.35;;;12.90;99.90;;;;;;5004683;28;20045;-74
2022/10/25 06:21:15;;;;;;;7.07;2.25;;;12.90;99.90;;;;;;5001503;28;20065;-75
2022/10/25 06:23:41;;;;;;;16.75;2.50;;;12.90;99.90;;;;;;5002248;28;20377;-75
2022/10/25 06:26:09;;;;;;;;;;;12.90;99.90;;;;;;5020507;28;20382;-75
2022/10/25 06:28:35;;;;;;;8.02;2.05;;;12.90;99.90;;;;;;5008119;28;19924;-75
2022/10/25 06:31:15;;;;;;;;;;;12.90;99.90;;;;;;5007587;28;20488;-75
2022/10/25 06:33:41;;;;;;;8.48;1.92;;;12.90;99.90;;;;;;5015379;28;20291;-75
2022/10/25 06:36:18;;;;;;;6.07;1.90;;;12.90;99.90;;;;;;5003254;28;20037;-75
2022/10/25 06:38:44;;;;;;;7.60;2.05;;;12.90;99.90;;;;;;5005581;28;20050;-75
2022/10/25 06:41:15;;;;;;;7.03;2.20;;;12.90;99.90;;;;;;4990058;28;20049;-75
2022/10/25 06:43:40;;;;;;;7.85;2.05;;;12.90;99.90;;;;;;4997249;28;20289;-75
2022/10/25 06:46:08;;;;;;;5.10;2.13;;;12.90;99.90;;;;;;4999286;28;20049;-75
2022/10/25 06:48:34;;;;;;;9.60;2.70;;;12.90;99.90;;;;;;4998364;28;20045;-75
2022/10/25 06:51:05;;;;;;;8.95;1.88;;;12.90;99.90;;;;;;5003226;28;20044;-74
2022/10/25 06:53:31;;;;;;;12.02;2.15;;;12.90;99.90;;;;;;4998256;28;20180;-75
2022/10/25 06:56:00;;;;;;;;;;;12.90;99.90;;;;;;5003905;28;20045;-75
2022/10/25 06:58:28;;;;;;;8.25;2.40;;;12.90;99.90;;;;;;5003230;28;20247;-75
2022/10/25 07:00:53;;;;;;;10.63;1.77;;;12.90;99.90;;;;;;4999281;28;20041;-75
2022/10/25 07:03:21;;;;;;;8.50;2.10;;;12.80;99.90;;;;;;5000783;28;20236;-75
2022/10/25 07:05:47;;;;;;;9.05;2.05;;;12.90;99.90;;;;;;5004056;28;20653;-75
2022/10/25 07:08:12;;;;;;;6.57;1.90;;;12.90;99.90;;;;;;4997112;28;20049;-75
2022/10/25 07:10:38;;;;;;;8.17;2.17;;;12.90;99.90;;;;;;5004695;28;20329;-75
2022/10/25 07:13:04;;;;;;;8.18;2.30;;;12.80;99.90;;;;;;5007594;28;20590;-75
2022/10/25 07:15:30;;;;;;;10.07;2.03;;;12.80;99.90;;;;;;4998083;28;20084;-75
2022/10/25 07:17:55;;;;;;;11.13;2.37;;;12.90;99.90;;;;;;5009311;28;20796;-75
2022/10/25 07:20:21;;;;;;;7.80;1.77;;;12.90;99.90;;;;;;5002150;28;20603;-75
2022/10/25 07:22:49;;;;;;;5.43;1.77;;;12.80;99.90;;;;;;5007673;28;20053;-75
2022/10/25 07:25:14;;;;;;;6.13;2.13;;;12.90;99.90;;;;;;4994712;28;20303;-75
2022/10/25 07:27:40;;;;;;;10.13;2.72;;;12.80;99.90;;;;;;5005485;28;20110;-75
2022/10/25 07:30:06;;;;;;;10.32;1.85;;;12.90;99.90;;;;;;4994799;28;20045;-75
2022/10/25 07:32:32;;;;;;;10.52;2.20;;;12.90;99.90;;;;;;4997658;28;20042;-75
2022/10/25 07:34:57;;;;;;;7.20;1.80;;;12.90;99.90;;;;;;5009617;28;20088;-75
2022/10/25 07:37:23;;;;;;;7.13;2.77;;;12.90;99.90;;;;;;5001461;28;20347;-75
2022/10/25 07:39:49;;;;;;;11.00;2.20;;;12.90;99.90;;;;;;5005534;28;20322;-75
2022/10/25 07:42:14;;;;;;;10.20;1.77;;;12.90;99.90;;;;;;4991744;28;20451;-75
2022/10/25 07:44:40;;;;;;;8.40;1.92;;;12.90;99.90;;;;;;5004687;28;20096;-75
2022/10/25 07:47:05;;;;;;;5.43;2.00;;;12.90;99.90;;;;;;5002393;28;20405;-75
2022/10/25 07:49:31;;;;;;;4.28;1.45;;;12.90;99.90;;;;;;5001431;28;20056;-75
2022/10/25 07:51:57;;;;;;;11.53;2.10;;;13.00;99.90;;;;;;4997219;28;20042;-75
2022/10/25 07:54:22;;;;;;;7.73;1.93;;;13.00;99.90;;;;;;5001774;28;20512;-75
2022/10/25 07:56:48;;;;;;;3.97;1.80;;;13.00;99.90;;;;;;4997371;28;20046;-75
2022/10/25 07:59:13;;;;;;;10.60;2.27;;;13.10;99.90;;;;;;4999781;28;20397;-75
2022/10/25 08:01:39;;;;;;;9.13;1.93;;;13.10;99.90;;;;;;4993701;28;20049;-77
2022/10/25 08:04:05;;;;;;;15.37;2.10;;;13.10;99.90;;;;;;5001436;28;20073;-75
2022/10/25 08:06:30;;;;;;;12.17;2.37;;;13.20;99.90;;;;;;5000290;28;20319;-75
2022/10/25 08:08:56;;;;;;;10.13;2.03;;;13.20;99.90;;;;;;4996979;28;20814;-75
2022/10/25 08:11:22;;;;;;;7.90;2.03;;;13.30;99.90;;;;;;4996481;28;20241;-74
2022/10/25 08:13:49;;;;;;;8.43;2.10;;;13.40;99.90;;;;;;4989011;28;20038;-74
2022/10/25 08:16:15;;;;;;;7.28;2.28;;;13.40;99.90;;;;;;5002886;28;20045;-74
2022/10/25 08:18:41;;;;;;;8.15;1.85;;;13.40;99.90;;;;;;5002613;28;20061;-75
2022/10/25 08:21:07;;;;;;;5.75;2.10;;;13.40;99.90;;;;;;4984587;28;20045;-74
2022/10/25 08:23:33;;;;;;;11.97;3.03;;;13.50;99.90;;;;;;5007343;28;20045;-74
2022/10/25 08:26:02;;;;;;;8.10;2.63;;;13.50;99.90;;;;;;4996992;28;20057;-74
2022/10/25 08:28:29;;;;;;;11.75;3.42;;;13.60;99.90;;;;;;5014550;28;20140;-75
2022/10/25 08:30:55;;;;;;;9.48;2.88;;;13.50;99.90;;;;;;5008086;28;20045;-74
2022/10/25 08:33:22;;;;;;;9.63;3.05;;;13.60;99.90;;;;;;5004219;28;20038;-74
2022/10/25 08:35:47;;;;;;;17.50;2.85;;;13.60;99.90;;;;;;5001602;28;20054;-74
2022/10/25 08:38:13;;;;;;;12.68;3.70;;;13.70;99.90;;;;;;5004539;28;22181;-75
2022/10/25 08:40:46;;;;;;;10.02;3.47;;;13.70;99.90;;;;;;5003617;28;20069;-74
2022/10/25 08:43:17;;;;;;;9.65;3.10;;;13.70;99.90;;;;;;5001246;28;20432;-74
2022/10/25 08:46:09;;;;;;;7.05;3.15;;;13.70;99.90;;;;;;4999621;28;20144;-74
2022/10/25 08:48:43;;;;;;;7.22;2.65;;;13.70;99.90;;;;;;4991857;28;20486;-75
2022/10/25 08:51:24;;;;;;;12.43;3.55;;;13.80;99.90;;;;;;4994621;23;20042;-72
2022/10/25 08:53:53;;;;;;;9.40;3.15;;;13.80;99.90;;;;;;4991968;28;20077;-74
2022/10/25 08:56:20;;;;;;;11.70;3.33;;;13.90;99.90;;;;;;4984501;28;20111;-73
2022/10/25 08:58:57;;;;;;;11.88;2.72;;;13.90;99.90;;;;;;4987571;28;20094;-73
2022/10/25 09:01:52;;;;;;;14.25;3.63;;;13.90;99.90;;;;;;4990722;28;20054;-73
2022/10/25 09:04:20;;;;;;;13.95;3.92;;;14.00;99.90;;;;;;4989114;28;20054;-73
2022/10/25 09:07:09;;;;;;;12.02;3.83;;;14.10;99.90;;;;;;4984630;28;20443;-73
2022/10/25 09:09:49;;;;;;;16.00;3.88;;;14.20;99.90;;;;;;4984103;28;20078;-73
2022/10/25 09:12:51;;;;;;;10.68;3.28;;;14.20;99.90;;;;;;4992853;28;20062;-72
2022/10/25 09:16:21;;;;;;;11.88;2.78;;;14.30;99.90;;;;;;4990133;28;20038;-72
2022/10/25 09:18:48;;;;;;;9.93;2.90;;;14.30;99.90;;;;;;4875599;29;20575;-73
2022/10/25 09:21:21;;;;;;;11.35;2.75;;;14.20;99.90;;;;;;4898689;29;20055;-73
2022/10/25 09:23:56;;;;;;;13.68;2.88;;;14.40;99.90;;;;;;4941985;28;20252;-73
2022/10/25 09:26:28;;;;;;;9.27;1.83;;;14.50;99.90;;;;;;4984675;28;20081;-73
2022/10/25 09:29:23;;;;;;;8.75;1.98;;;14.50;99.90;;;;;;4982260;28;20042;-73
2022/10/25 09:31:56;;;;;;;6.32;2.00;;;14.60;99.90;;;;;;4988217;28;20446;-74
2022/10/25 09:34:22;;;;;;;6.88;2.42;;;14.70;99.90;;;;;;4987434;28;20046;-73
2022/10/25 09:36:50;;;;;;;;;;;14.70;99.90;;;;;;4990899;28;20038;-73
2022/10/25 09:39:22;;;;;;;9.98;2.03;;;14.80;99.90;;;;;;4983377;28;19918;-73
2022/10/25 09:41:51;;;;;;;10.98;1.85;;;14.70;99.90;;;;;;4992378;28;20527;-73
2022/10/25 09:44:47;;;;;;;6.93;2.15;;;14.80;99.90;;;;;;4986061;28;20049;-74
2022/10/25 09:47:31;;;;;;;9.60;1.67;;;14.80;99.90;;;;;;4981128;28;20050;-73
2022/10/25 09:50:20;;;;;;;12.23;1.98;;;14.80;99.90;;;;;;4993372;28;20044;-73
2022/10/25 09:53:15;;;;;;;9.95;2.28;;;14.90;99.90;;;;;;4986415;28;20046;-73
2022/10/25 09:56:01;;;;;;;7.57;2.38;;;15.00;99.90;;;;;;4985392;28;20038;-73
2022/10/25 09:58:29;;;;;;;7.30;1.80;;;15.10;99.90;;;;;;4982937;28;20046;-73
2022/10/25 10:01:03;;;;;;;18.25;2.42;;;15.10;99.90;;;;;;4987909;28;20074;-73
2022/10/25 10:03:32;;;;;;;10.30;2.60;;;15.10;99.90;;;;;;4989256;28;20377;-74
2022/10/25 10:06:23;;;;;;;7.60;2.42;;;15.10;99.90;;;;;;4988513;28;20053;-73
2022/10/25 10:08:53;;;;;;;6.68;2.10;;;15.20;99.90;;;;;;4982124;28;20459;-74
2022/10/25 10:11:19;;;;;;;6.90;2.25;;;15.20;99.90;;;;;;4989234;28;20496;-73
2022/10/25 10:13:58;;;;;;;6.50;1.85;;;15.20;99.90;;;;;;4986507;28;20065;-73
2022/10/25 10:16:30;;;;;;;7.50;1.85;;;15.30;99.90;;;;;;4986356;28;20050;-73
2022/10/25 10:19:29;;;;;;;6.75;2.08;;;15.30;99.90;;;;;;4988459;28;20051;-73
2022/10/25 10:22:00;;;;;;;8.25;2.20;;;15.40;99.90;;;;;;4951521;28;20409;-73
2022/10/25 10:24:32;;;;;;;13.60;2.55;;;15.30;99.90;;;;;;4984593;28;20049;-73
2022/10/25 10:27:05;;;;;;;11.40;2.05;;;15.40;99.90;;;;;;4985071;28;20134;-73
2022/10/25 10:29:34;;;;;;;5.82;2.22;;;15.50;99.90;;;;;;4983725;28;20448;-73
2022/10/25 10:32:04;;;;;;;6.63;1.73;;;15.50;99.90;;;;;;4988334;28;20416;-73
2022/10/25 10:34:31;;;;;;;8.85;2.95;;;15.50;99.90;;;;;;5004259;28;20046;-73
2022/10/25 10:37:24;;;;;;;9.90;1.75;;;15.50;99.90;;;;;;4985740;28;20096;-74
2022/10/25 10:39:51;;;;;;;7.65;1.92;;;15.70;99.90;;;;;;4982701;28;20511;-73
2022/10/25 10:42:20;;;;;;;5.97;1.42;;;15.70;99.90;;;;;;4987317;28;20485;-73
2022/10/25 10:45:04;;;;;;;6.53;1.80;;;15.70;99.90;;;;;;4985270;28;20042;-79
2022/10/25 10:47:38;;;;;;;9.43;2.15;;;15.80;99.90;;;;;;4987345;28;20483;-73
2022/10/25 10:50:19;;;;;;;7.95;1.50;;;15.90;99.90;;;;;;4984619;28;20392;-73
2022/10/25 10:52:46;;;;;;;6.95;1.63;;;16.00;99.90;;;;;;4985339;28;20488;-73
2022/10/25 10:55:27;;;;;;;6.93;1.98;;;16.00;99.90;;;;;;4966071;28;20046;-73
2022/10/25 10:57:54;;;;;;;5.63;2.15;;;16.10;99.90;;;;;;4985375;28;20365;-73
2022/10/25 11:00:27;;;;;;;3.92;1.73;;;16.10;99.90;;;;;;4984078;28;20484;-74
2022/10/25 11:02:52;;;;;;;5.72;1.92;;;16.00;99.90;;;;;;4989152;28;20034;-73
2022/10/25 11:05:30;;;;;;;5.63;1.95;;;16.00;99.90;;;;;;4983388;28;20412;-73
2022/10/25 11:07:58;;;;;;;7.70;1.88;;;15.90;99.90;;;;;;4982420;28;20057;-73
2022/10/25 11:10:28;;;;;;;8.38;1.63;;;15.90;99.90;;;;;;4987002;28;20054;-73
2022/10/25 11:13:14;;;;;;;6.47;2.28;;;16.00;99.90;;;;;;4986800;28;20113;-73
2022/10/25 11:16:03;;;;;;;6.90;1.60;;;16.00;99.90;;;;;;4984407;28;20392;-74
2022/10/25 11:18:40;;;;;;;10.02;2.20;;;15.90;99.90;;;;;;4967068;28;20060;-73
2022/10/25 11:21:45;;;;;;;9.68;2.50;;;16.00;99.90;;;;;;4988339;28;20508;-73
2022/10/25 11:24:23;;;;;;;6.35;2.15;;;16.10;99.90;;;;;;4996533;28;20050;-73
2022/10/25 11:26:57;;;;;;;13.82;2.75;;;16.10;99.90;;;;;;4981145;28;20046;-73
2022/10/25 11:29:36;;;;;;;7.88;2.03;;;16.20;99.90;;;;;;4981877;28;20042;-75
2022/10/25 11:32:11;;;;;;;8.50;2.45;;;16.20;99.90;;;;;;4989038;28;20039;-73
2022/10/25 11:34:36;;;;;;;8.15;2.10;;;16.40;99.90;;;;;;4987885;28;20125;-73
2022/10/25 11:37:15;;;;;;;11.63;1.85;;;16.40;99.90;;;;;;4980954;28;20509;-74
2022/10/25 11:39:58;;;;;;;7.38;2.20;;;16.30;99.90;;;;;;4988548;28;20434;-74
2022/10/25 11:42:42;;;;;;;8.20;1.80;;;16.20;99.90;;;;;;4986903;28;20053;-73
2022/10/25 11:45:30;;;;;;;4.50;1.15;;;16.20;99.90;;;;;;4986347;28;20405;-73
2022/10/25 11:48:17;;;;;;;5.53;1.27;;;16.10;99.90;;;;;;4990385;28;20034;-73
2022/10/25 11:51:07;;;;;;;8.33;1.60;;;16.20;99.90;;;;;;4989831;28;20061;-73
2022/10/25 11:53:41;;;;;;;5.20;2.15;;;16.30;99.90;;;;;;4987164;28;20041;-73
2022/10/25 11:56:28;;;;;;;6.47;1.40;;;16.50;99.90;;;;;;4996163;28;20045;-73
2022/10/25 11:59:05;;;;;;;4.82;1.33;;;16.60;99.90;;;;;;4991622;28;20034;-73
2022/10/25 12:01:49;;;;;;;5.80;1.40;;;16.60;99.90;;;;;;4992427;28;20133;-73
2022/10/25 12:04:35;;;;;;;7.53;1.70;;;16.70;99.90;;;;;;4991318;28;20141;-74
2022/10/25 12:07:24;;;;;;;4.72;1.75;;;16.70;99.90;;;;;;4990242;28;20134;-73
2022/10/25 12:10:20;;;;;;;5.68;1.90;;;16.80;99.90;;;;;;4990192;28;20431;-73
2022/10/25 12:12:48;;;;;;;5.40;1.75;;;16.80;99.90;;;;;;4990523;28;20034;-73
2022/10/25 12:15:20;;;;;;;5.70;2.20;;;16.80;99.90;;;;;;4989470;28;20046;-73
2022/10/25 12:17:47;;;;;;;5.70;2.03;;;16.80;99.90;;;;;;4990641;28;20079;-73
2022/10/25 12:20:24;;;;;;;8.00;2.58;;;16.70;99.90;;;;;;4989819;28;20050;-73
2022/10/25 12:22:53;;;;;;;8.55;2.65;;;16.70;99.90;;;;;;4986519;28;20080;-73
2022/10/25 12:25:36;;;;;;;6.78;2.80;;;16.70;99.90;;;;;;4988532;28;20050;-73
2022/10/25 12:28:20;;;;;;;4.82;2.38;;;16.80;99.90;;;;;;4979070;28;20121;-73
2022/10/25 12:30:47;;;;;;;8.02;2.63;;;16.80;99.90;;;;;;4972819;28;20539;-73
2022/10/25 12:33:31;;;;;;;10.60;2.30;;;16.80;99.90;;;;;;4990355;28;20042;-73
2022/10/25 12:36:02;;;;;;;7.00;2.42;;;16.80;99.90;;;;;;4988765;28;20049;-74
2022/10/25 12:38:36;;;;;;;12.57;3.03;;;16.80;99.90;;;;;;4991093;28;20038;-73
2022/10/25 12:41:24;;;;;;;5.47;2.25;;;16.80;99.90;;;;;;4990439;28;20048;-73
2022/10/25 12:43:59;;;;;;;7.20;2.63;;;16.80;99.90;;;;;;4988423;28;20385;-73
2022/10/25 12:46:38;;;;;;;10.43;2.72;;;16.80;99.90;;;;;;4989635;28;20396;-73
2022/10/25 12:49:16;;;;;;;6.78;2.40;;;16.70;99.90;;;;;;5004624;28;20039;-72
2022/10/25 12:52:04;;;;;;;7.03;3.08;;;16.70;99.90;;;;;;4988617;28;20402;-74
2022/10/25 12:54:55;;;;;;;5.60;2.90;;;16.70;99.90;;;;;;4994624;28;20038;-73
2022/10/25 12:57:49;;;;;;;7.50;2.88;;;16.70;99.90;;;;;;4972993;28;20065;-73
2022/10/25 13:00:17;;;;;;;6.55;2.95;;;16.60;99.90;;;;;;4969928;28;20050;-73
2022/10/25 13:03:11;;;;;;;5.97;2.78;;;16.50;99.90;;;;;;4979174;28;20045;-73
2022/10/25 13:06:10;;;;;;;8.77;2.78;;;16.40;99.90;;;;;;4988780;28;20050;-73
2022/10/25 13:08:39;;;;;;;6.32;2.22;;;16.30;99.90;;;;;;4987983;28;20488;-73